sensor_id;sensor_type;location;lat;lon;timestamp;P1;durP1;ratioP1;P2;durP2;ratioP2
10142;SDS011;5112;54.088;13.446;2023-12-14T00:01:39;2.83;;;1.53;;
10142;SDS011;5112;54.088;13.446;2023-12-14T00:11:42;3.67;;;1.60;;
10142;SDS011;5112;54.088;13.446;2023-12-14T00:21:44;3.60;;;1.70;;
10142;SDS011;5112;54.088;13.446;2023-12-14T00:31:47;4.37;;;1.83;;
10142;SDS011;5112;54.088;13.446;2023-12-14T00:41:49;1.77;;;1.67;;
10142;SDS011;5112;54.088;13.446;2023-12-14T00:51:52;3.73;;;2.07;;
10142;SDS011;5112;54.088;13.446;2023-12-14T01:01:53;3.53;;;1.93;;
10142;SDS011;5112;54.088;13.446;2023-12-14T01:11:56;6.37;;;2.13;;
10142;SDS011;5112;54.088;13.446;2023-12-14T01:21:58;3.30;;;2.50;;
10142;SDS011;5112;54.088;13.446;2023-12-14T01:32:01;3.17;;;1.80;;
10142;SDS011;5112;54.088;13.446;2023-12-14T01:42:02;3.80;;;1.97;;
10142;SDS011;5112;54.088;13.446;2023-12-14T01:52:06;3.80;;;2.63;;
10142;SDS011;5112;54.088;13.446;2023-12-14T02:02:08;4.00;;;2.13;;
10142;SDS011;5112;54.088;13.446;2023-12-14T02:12:11;2.97;;;2.20;;
10142;SDS011;5112;54.088;13.446;2023-12-14T02:22:12;5.27;;;2.57;;
10142;SDS011;5112;54.088;13.446;2023-12-14T02:32:15;2.10;;;1.90;;
10142;SDS011;5112;54.088;13.446;2023-12-14T02:42:17;3.83;;;2.37;;
10142;SDS011;5112;54.088;13.446;2023-12-14T02:52:20;3.50;;;2.50;;
10142;SDS011;5112;54.088;13.446;2023-12-14T03:02:22;4.60;;;2.97;;
10142;SDS011;5112;54.088;13.446;2023-12-14T03:12:25;4.97;;;3.30;;
10142;SDS011;5112;54.088;13.446;2023-12-14T03:22:27;5.53;;;3.33;;
10142;SDS011;5112;54.088;13.446;2023-12-14T03:32:30;3.30;;;2.90;;
10142;SDS011;5112;54.088;13.446;2023-12-14T03:42:31;4.07;;;3.17;;
10142;SDS011;5112;54.088;13.446;2023-12-14T03:52:35;4.13;;;3.20;;
10142;SDS011;5112;54.088;13.446;2023-12-14T04:02:37;8.77;;;3.40;;
10142;SDS011;5112;54.088;13.446;2023-12-14T04:12:40;4.47;;;3.27;;
10142;SDS011;5112;54.088;13.446;2023-12-14T04:22:42;5.87;;;2.23;;
10142;SDS011;5112;54.088;13.446;2023-12-14T04:32:46;2.37;;;1.70;;
10142;SDS011;5112;54.088;13.446;2023-12-14T04:42:48;2.40;;;2.10;;
10142;SDS011;5112;54.088;13.446;2023-12-14T04:52:51;2.83;;;2.53;;
10142;SDS011;5112;54.088;13.446;2023-12-14T05:02:52;2.27;;;1.90;;
10142;SDS011;5112;54.088;13.446;2023-12-14T05:12:55;2.30;;;1.70;;
10142;SDS011;5112;54.088;13.446;2023-12-14T05:22:57;3.23;;;1.73;;
10142;SDS011;5112;54.088;13.446;2023-12-14T05:33:01;2.03;;;1.50;;
10142;SDS011;5112;54.088;13.446;2023-12-14T05:43:02;3.97;;;1.73;;
10142;SDS011;5112;54.088;13.446;2023-12-14T05:53:05;3.37;;;1.73;;
10142;SDS011;5112;54.088;13.446;2023-12-14T06:03:07;2.37;;;2.10;;
10142;SDS011;5112;54.088;13.446;2023-12-14T06:13:10;2.10;;;1.80;;
10142;SDS011;5112;54.088;13.446;2023-12-14T06:23:11;2.17;;;1.80;;
10142;SDS011;5112;54.088;13.446;2023-12-14T06:33:14;2.07;;;1.83;;
10142;SDS011;5112;54.088;13.446;2023-12-14T06:43:16;3.67;;;2.37;;
10142;SDS011;5112;54.088;13.446;2023-12-14T06:53:19;3.90;;;2.13;;
10142;SDS011;5112;54.088;13.446;2023-12-14T07:03:21;4.93;;;2.60;;
10142;SDS011;5112;54.088;13.446;2023-12-14T07:13:24;2.90;;;2.00;;
10142;SDS011;5112;54.088;13.446;2023-12-14T07:23:25;2.20;;;2.00;;
10142;SDS011;5112;54.088;13.446;2023-12-14T07:33:28;2.77;;;2.30;;
10142;SDS011;5112;54.088;13.446;2023-12-14T07:43:30;2.97;;;2.07;;
10142;SDS011;5112;54.088;13.446;2023-12-14T07:53:33;4.30;;;1.97;;
10142;SDS011;5112;54.088;13.446;2023-12-14T08:03:34;2.80;;;1.80;;
10142;SDS011;5112;54.088;13.446;2023-12-14T08:13:37;1.73;;;1.63;;
10142;SDS011;5112;54.088;13.446;2023-12-14T08:23:40;1.87;;;1.67;;
10142;SDS011;5112;54.088;13.446;2023-12-14T08:33:43;1.67;;;1.57;;
10142;SDS011;5112;54.088;13.446;2023-12-14T08:43:45;4.17;;;2.13;;
10142;SDS011;5112;54.088;13.446;2023-12-14T08:53:48;2.20;;;1.90;;
10142;SDS011;5112;54.088;13.446;2023-12-14T09:03:50;3.47;;;2.20;;
10142;SDS011;5112;54.088;13.446;2023-12-14T09:13:53;2.10;;;1.90;;
10142;SDS011;5112;54.088;13.446;2023-12-14T09:23:54;3.17;;;1.90;;
10142;SDS011;5112;54.088;13.446;2023-12-14T09:33:57;5.53;;;2.40;;
10142;SDS011;5112;54.088;13.446;2023-12-14T09:43:59;10.43;;;9.37;;
10142;SDS011;5112;54.088;13.446;2023-12-14T09:54:03;7.80;;;6.20;;
10142;SDS011;5112;54.088;13.446;2023-12-14T10:04:08;3.37;;;3.17;;
10142;SDS011;5112;54.088;13.446;2023-12-14T10:14:18;2.07;;;1.87;;
10142;SDS011;5112;54.088;13.446;2023-12-14T10:24:21;1.57;;;1.47;;
10142;SDS011;5112;54.088;13.446;2023-12-14T10:34:25;3.30;;;2.73;;
10142;SDS011;5112;54.088;13.446;2023-12-14T10:44:27;3.17;;;2.60;;
10142;SDS011;5112;54.088;13.446;2023-12-14T10:54:31;9.07;;;8.10;;
10142;SDS011;5112;54.088;13.446;2023-12-14T11:14:57;3.60;;;3.30;;
10142;SDS011;5112;54.088;13.446;2023-12-14T11:24:58;1.90;;;1.80;;
10142;SDS011;5112;54.088;13.446;2023-12-14T11:35:04;2.33;;;2.00;;
10142;SDS011;5112;54.088;13.446;2023-12-14T11:45:08;6.87;;;4.33;;
10142;SDS011;5112;54.088;13.446;2023-12-14T11:55:12;2.70;;;2.50;;
10142;SDS011;5112;54.088;13.446;2023-12-14T12:05:14;2.47;;;2.27;;
10142;SDS011;5112;54.088;13.446;2023-12-14T12:15:20;2.30;;;2.10;;
10142;SDS011;5112;54.088;13.446;2023-12-14T12:25:21;2.70;;;2.10;;
10142;SDS011;5112;54.088;13.446;2023-12-14T12:35:25;2.80;;;2.20;;
10142;SDS011;5112;54.088;13.446;2023-12-14T12:45:26;2.83;;;2.27;;
10142;SDS011;5112;54.088;13.446;2023-12-14T12:55:30;4.03;;;2.37;;
10142;SDS011;5112;54.088;13.446;2023-12-14T13:05:31;2.80;;;2.47;;
10142;SDS011;5112;54.088;13.446;2023-12-14T13:15:34;2.83;;;2.60;;
10142;SDS011;5112;54.088;13.446;2023-12-14T13:25:40;3.07;;;2.50;;
10142;SDS011;5112;54.088;13.446;2023-12-14T13:35:43;6.53;;;5.83;;
10142;SDS011;5112;54.088;13.446;2023-12-14T13:45:45;4.83;;;3.90;;
10142;SDS011;5112;54.088;13.446;2023-12-14T13:55:49;3.57;;;2.87;;
10142;SDS011;5112;54.088;13.446;2023-12-14T14:05:51;9.63;;;8.60;;
10142;SDS011;5112;54.088;13.446;2023-12-14T14:15:54;4.47;;;3.00;;
10142;SDS011;5112;54.088;13.446;2023-12-14T14:25:56;3.70;;;3.40;;
10142;SDS011;5112;54.088;13.446;2023-12-14T14:35:59;3.63;;;3.23;;
10142;SDS011;5112;54.088;13.446;2023-12-14T14:46:05;3.47;;;3.00;;
10142;SDS011;5112;54.088;13.446;2023-12-14T14:56:08;3.63;;;2.43;;
10142;SDS011;5112;54.088;13.446;2023-12-14T15:06:10;3.90;;;2.90;;
10142;SDS011;5112;54.088;13.446;2023-12-14T15:16:13;4.10;;;3.80;;
10142;SDS011;5112;54.088;13.446;2023-12-14T15:26:15;4.20;;;3.50;;
10142;SDS011;5112;54.088;13.446;2023-12-14T15:36:18;5.23;;;4.77;;
10142;SDS011;5112;54.088;13.446;2023-12-14T15:46:19;7.60;;;6.90;;
10142;SDS011;5112;54.088;13.446;2023-12-14T15:56:22;7.37;;;6.67;;
10142;SDS011;5112;54.088;13.446;2023-12-14T16:06:26;6.40;;;5.67;;
10142;SDS011;5112;54.088;13.446;2023-12-14T16:16:29;4.83;;;4.33;;
10142;SDS011;5112;54.088;13.446;2023-12-14T16:26:31;4.63;;;4.10;;
10142;SDS011;5112;54.088;13.446;2023-12-14T16:36:39;6.30;;;5.63;;
10142;SDS011;5112;54.088;13.446;2023-12-14T16:46:41;11.17;;;10.07;;
10142;SDS011;5112;54.088;13.446;2023-12-14T16:56:44;22.93;;;19.43;;
10142;SDS011;5112;54.088;13.446;2023-12-14T17:06:46;15.47;;;14.17;;
10142;SDS011;5112;54.088;13.446;2023-12-14T17:16:49;6.97;;;5.83;;
10142;SDS011;5112;54.088;13.446;2023-12-14T17:26:52;19.53;;;14.43;;
10142;SDS011;5112;54.088;13.446;2023-12-14T17:36:56;6.33;;;5.60;;
10142;SDS011;5112;54.088;13.446;2023-12-14T17:46:58;15.07;;;11.80;;
10142;SDS011;5112;54.088;13.446;2023-12-14T17:57:01;10.90;;;8.30;;
10142;SDS011;5112;54.088;13.446;2023-12-14T18:07:03;9.53;;;5.90;;
10142;SDS011;5112;54.088;13.446;2023-12-14T18:17:06;6.13;;;5.53;;
10142;SDS011;5112;54.088;13.446;2023-12-14T18:27:07;5.07;;;4.57;;
10142;SDS011;5112;54.088;13.446;2023-12-14T18:37:10;7.43;;;6.33;;
10142;SDS011;5112;54.088;13.446;2023-12-14T18:47:14;8.17;;;6.50;;
10142;SDS011;5112;54.088;13.446;2023-12-14T18:57:17;9.10;;;6.97;;
10142;SDS011;5112;54.088;13.446;2023-12-14T19:07:19;7.90;;;7.10;;
10142;SDS011;5112;54.088;13.446;2023-12-14T19:17:22;9.07;;;7.37;;
10142;SDS011;5112;54.088;13.446;2023-12-14T19:27:25;8.23;;;6.20;;
10142;SDS011;5112;54.088;13.446;2023-12-14T19:37:28;8.77;;;7.70;;
10142;SDS011;5112;54.088;13.446;2023-12-14T19:47:31;10.37;;;8.67;;
10142;SDS011;5112;54.088;13.446;2023-12-14T19:57:35;8.40;;;6.60;;
10142;SDS011;5112;54.088;13.446;2023-12-14T20:07:37;7.40;;;6.30;;
10142;SDS011;5112;54.088;13.446;2023-12-14T20:17:40;7.23;;;6.07;;
10142;SDS011;5112;54.088;13.446;2023-12-14T20:27:41;6.23;;;5.53;;
10142;SDS011;5112;54.088;13.446;2023-12-14T20:37:44;7.43;;;5.77;;
10142;SDS011;5112;54.088;13.446;2023-12-14T20:47:47;6.77;;;5.90;;
10142;SDS011;5112;54.088;13.446;2023-12-14T20:57:50;6.50;;;5.27;;
10142;SDS011;5112;54.088;13.446;2023-12-14T21:07:51;7.57;;;5.87;;
10142;SDS011;5112;54.088;13.446;2023-12-14T21:17:54;6.73;;;6.00;;
10142;SDS011;5112;54.088;13.446;2023-12-14T21:27:56;7.20;;;6.43;;
10142;SDS011;5112;54.088;13.446;2023-12-14T21:37:59;6.13;;;5.53;;
10142;SDS011;5112;54.088;13.446;2023-12-14T21:48:01;8.33;;;6.67;;
10142;SDS011;5112;54.088;13.446;2023-12-14T21:58:03;9.90;;;7.57;;
10142;SDS011;5112;54.088;13.446;2023-12-14T22:08:05;7.47;;;6.27;;
10142;SDS011;5112;54.088;13.446;2023-12-14T22:18:08;6.47;;;5.60;;
10142;SDS011;5112;54.088;13.446;2023-12-14T22:28:10;6.97;;;6.20;;
10142;SDS011;5112;54.088;13.446;2023-12-14T22:38:13;7.60;;;5.97;;
10142;SDS011;5112;54.088;13.446;2023-12-14T22:48:15;7.70;;;6.23;;
10142;SDS011;5112;54.088;13.446;2023-12-14T22:58:18;9.50;;;6.10;;
10142;SDS011;5112;54.088;13.446;2023-12-14T23:08:19;8.77;;;6.20;;
10142;SDS011;5112;54.088;13.446;2023-12-14T23:18:22;8.90;;;6.90;;
10142;SDS011;5112;54.088;13.446;2023-12-14T23:28:24;8.20;;;6.67;;
10142;SDS011;5112;54.088;13.446;2023-12-14T23:38:27;8.57;;;6.97;;
10142;SDS011;5112;54.088;13.446;2023-12-14T23:48:28;9.17;;;6.70;;
10142;SDS011;5112;54.088;13.446;2023-12-14T23:58:31;10.27;;;6.53;;
